Time;durP1;ratioP1;P1;durP2;ratioP2;P2;SDS_P1;SDS_P2;PMS_P1;PMS_P2;Temp;Humidity;BMP_temperature;BMP_pressure;BME280_temperature;BME280_humidity;BME280_pressure;Samples;Min_cycle;Max_cycle;Signal;HPM_P1;HPM_P2
2023/02/28 00:00:47;;;;;;;2.80;0.68;;;3.40;99.90;;;;;;4988587;28;20118;-72
2023/02/28 00:03:13;;;;;;;2.63;1.35;;;3.40;99.90;;;;;;4969560;28;20707;-71
2023/02/28 00:05:39;;;;;;;7.65;0.80;;;3.40;99.90;;;;;;4987373;28;20042;-72
2023/02/28 00:08:04;;;;;;;8.07;1.60;;;3.40;99.90;;;;;;4987263;28;20032;-72
2023/02/28 00:10:33;;;;;;;2.65;0.70;;;3.30;99.90;;;;;;4987060;28;20052;-72
2023/02/28 00:13:03;;;;;;;3.05;0.75;;;3.40;99.90;;;;;;4985062;28;20518;-72
2023/02/28 00:15:29;;;;;;;2.22;0.47;;;3.30;99.90;;;;;;4969699;28;20517;-72
2023/02/28 00:17:55;;;;;;;3.30;1.13;;;3.30;99.90;;;;;;4987213;28;20042;-72
2023/02/28 00:20:20;;;;;;;2.72;0.60;;;3.30;99.90;;;;;;4987066;28;20038;-72
2023/02/28 00:22:50;;;;;;;3.85;1.02;;;3.30;99.90;;;;;;4970690;28;20089;-72
2023/02/28 00:25:19;;;;;;;1.73;1.23;;;3.30;99.90;;;;;;4987366;28;20042;-72
2023/02/28 00:27:45;;;;;;;1.42;0.65;;;3.30;99.90;;;;;;4987346;28;20034;-72
2023/02/28 00:30:13;;;;;;;5.20;0.60;;;3.40;99.90;;;;;;4985492;28;20104;-71
2023/02/28 00:32:39;;;;;;;3.92;0.63;;;3.40;99.90;;;;;;4988209;28;20023;-72
2023/02/28 00:35:06;;;;;;;2.05;0.50;;;3.40;99.90;;;;;;4985262;28;20018;-72
2023/02/28 00:37:32;;;;;;;3.58;0.50;;;3.40;99.90;;;;;;4986334;28;20054;-72
2023/02/28 00:39:57;;;;;;;2.60;0.63;;;3.50;99.90;;;;;;4969269;28;20062;-72
2023/02/28 00:42:23;;;;;;;2.38;0.57;;;3.50;99.90;;;;;;4986814;28;20085;-72
2023/02/28 00:44:49;;;;;;;1.10;0.43;;;3.60;99.90;;;;;;4987478;28;20062;-72
2023/02/28 00:47:15;;;;;;;1.52;0.60;;;3.50;99.90;;;;;;4985320;28;20104;-72
2023/02/28 00:49:41;;;;;;;2.78;0.80;;;3.60;99.90;;;;;;4987390;28;20720;-73
2023/02/28 00:52:07;;;;;;;1.67;0.52;;;3.60;99.90;;;;;;4984271;28;20026;-71
2023/02/28 00:54:33;;;;;;;2.17;0.60;;;3.70;99.90;;;;;;4969965;28;20035;-71
2023/02/28 00:56:59;;;;;;;5.57;0.80;;;3.70;99.90;;;;;;4986188;28;20085;-72
2023/02/28 00:59:25;;;;;;;2.70;0.60;;;3.80;99.90;;;;;;4987815;28;20499;-71
2023/02/28 01:01:51;;;;;;;2.03;0.60;;;3.80;99.90;;;;;;4969408;28;20050;-71
2023/02/28 01:04:17;;;;;;;10.02;0.90;;;3.80;99.90;;;;;;4985923;28;20407;-72
2023/02/28 01:06:43;;;;;;;2.10;0.80;;;3.80;99.90;;;;;;4968333;28;20070;-71
2023/02/28 01:09:09;;;;;;;2.90;1.02;;;3.80;99.90;;;;;;4987269;28;20372;-71
2023/02/28 01:11:35;;;;;;;1.23;0.50;;;3.80;99.90;;;;;;4988500;28;20121;-72
2023/02/28 01:14:01;;;;;;;4.32;0.85;;;3.80;99.90;;;;;;4972001;28;20173;-72
2023/02/28 01:16:28;;;;;;;1.80;0.98;;;3.90;99.90;;;;;;4990891;28;20042;-72
2023/02/28 01:18:54;;;;;;;2.80;0.55;;;3.80;99.90;;;;;;4989033;28;20042;-74
2023/02/28 01:21:21;;;;;;;2.65;1.10;;;3.90;99.90;;;;;;4989617;28;20039;-71
2023/02/28 01:23:48;;;;;;;2.10;0.60;;;3.90;99.90;;;;;;4989698;28;20117;-71
2023/02/28 01:26:19;;;;;;;4.32;0.70;;;3.90;99.90;;;;;;4972501;28;20030;-74
2023/02/28 01:28:45;;;;;;;3.22;0.90;;;3.90;99.90;;;;;;4990014;28;20038;-72
2023/02/28 01:31:11;;;;;;;2.78;0.80;;;4.00;99.90;;;;;;4988781;28;20038;-72
2023/02/28 01:33:38;;;;;;;2.75;0.60;;;3.90;99.90;;;;;;4989106;28;20034;-72
2023/02/28 01:36:16;;;;;;;2.72;0.95;;;3.90;99.90;;;;;;4971573;28;20577;-72
2023/02/28 01:38:42;;;;;;;2.30;1.00;;;3.90;99.90;;;;;;4987209;28;20034;-72
2023/02/28 01:41:10;;;;;;;5.43;1.10;;;3.80;99.90;;;;;;4992489;28;20110;-71
2023/02/28 01:43:42;;;;;;;4.20;1.00;;;3.80;99.90;;;;;;4993300;28;20086;-72
2023/02/28 01:46:07;;;;;;;6.90;0.52;;;3.80;99.90;;;;;;4985725;28;20406;-72
2023/02/28 01:48:38;;;;;;;1.75;0.98;;;3.90;99.90;;;;;;4989598;28;20041;-72
2023/02/28 01:51:10;;;;;;;;;;;3.90;99.90;;;;;;4985612;28;20042;-72
2023/02/28 01:53:47;;;;;;;3.70;0.98;;;3.90;99.90;;;;;;4986693;28;20368;-73
2023/02/28 01:56:20;;;;;;;3.38;0.90;;;3.90;99.90;;;;;;4988683;28;20073;-72
2023/02/28 01:58:52;;;;;;;2.35;1.30;;;3.90;99.90;;;;;;4971847;28;20030;-72
2023/02/28 02:01:21;;;;;;;3.53;0.80;;;3.90;99.90;;;;;;4988430;28;20050;-72
2023/02/28 02:03:55;;;;;;;2.20;0.93;;;3.90;99.90;;;;;;4989407;28;20034;-73
2023/02/28 02:06:38;;;;;;;4.07;1.00;;;4.00;99.90;;;;;;4995813;28;20034;-72
2023/02/28 02:09:04;;;;;;;5.15;0.90;;;4.00;99.90;;;;;;4984645;28;20030;-71
2023/02/28 02:11:30;;;;;;;1.02;0.50;;;4.00;99.90;;;;;;4971595;28;20705;-72
2023/02/28 02:14:16;;;;;;;3.42;0.80;;;4.00;99.90;;;;;;4970819;28;20065;-71
2023/02/28 02:16:55;;;;;;;8.40;0.88;;;4.00;99.90;;;;;;4969025;28;20034;-72
2023/02/28 02:19:26;;;;;;;5.97;0.85;;;4.00;99.90;;;;;;4987926;28;20050;-72
2023/02/28 02:22:08;;;;;;;4.63;1.08;;;4.00;99.90;;;;;;4991492;28;20129;-72
2023/02/28 02:24:52;;;;;;;7.85;0.82;;;3.90;99.90;;;;;;4992399;28;20125;-71
2023/02/28 02:27:25;;;;;;;2.30;0.70;;;4.00;99.90;;;;;;4971438;28;20049;-72
2023/02/28 02:30:12;;;;;;;7.10;0.90;;;3.90;99.90;;;;;;4971373;28;20426;-72
2023/02/28 02:33:07;;;;;;;2.08;0.70;;;4.00;99.90;;;;;;4986193;28;20080;-72
2023/02/28 02:36:03;;;;;;;5.65;0.82;;;3.90;99.90;;;;;;4985139;28;20026;-73
2023/02/28 02:38:34;;;;;;;3.85;0.80;;;3.90;99.90;;;;;;4988218;28;20156;-72
2023/02/28 02:41:23;;;;;;;1.40;0.80;;;3.80;99.90;;;;;;4993734;28;20026;-72
2023/02/28 02:44:04;;;;;;;4.63;0.70;;;3.80;99.90;;;;;;4989137;28;20129;-71
2023/02/28 02:46:32;;;;;;;3.00;0.98;;;3.90;99.90;;;;;;4984567;28;20101;-72
2023/02/28 02:49:00;;;;;;;7.13;1.33;;;3.90;99.90;;;;;;4985347;28;20426;-72
2023/02/28 02:51:27;;;;;;;1.90;0.80;;;3.90;99.90;;;;;;4988193;28;20038;-72
2023/02/28 02:54:11;;;;;;;4.28;0.77;;;3.90;99.90;;;;;;4988322;28;20026;-72
2023/02/28 02:56:39;;;;;;;2.67;0.70;;;3.80;99.90;;;;;;4985373;28;20041;-72
2023/02/28 02:59:09;;;;;;;7.20;0.90;;;3.90;99.90;;;;;;4975022;28;20026;-72
2023/02/28 03:01:36;;;;;;;2.90;0.88;;;3.90;99.90;;;;;;4988489;28;20037;-71
2023/02/28 03:04:05;;;;;;;4.25;1.20;;;4.00;99.90;;;;;;4987155;28;20023;-74
2023/02/28 03:06:31;;;;;;;2.88;0.73;;;3.90;99.90;;;;;;4988282;28;20038;-72
2023/02/28 03:08:57;;;;;;;2.85;0.60;;;3.90;99.90;;;;;;4969335;28;20530;-72
2023/02/28 03:11:23;;;;;;;5.03;1.25;;;3.90;99.90;;;;;;4987762;28;20030;-72
2023/02/28 03:14:29;;;;;;;1.58;0.80;;;3.90;99.90;;;;;;4988203;28;20161;-71
2023/02/28 03:17:17;;;;;;;3.03;0.88;;;4.00;99.90;;;;;;4998831;28;20046;-71
2023/02/28 03:20:06;;;;;;;2.13;0.90;;;4.00;99.90;;;;;;4989000;28;20062;-71
2023/02/28 03:22:41;;;;;;;4.90;0.77;;;4.00;99.90;;;;;;4986514;28;20041;-71
2023/02/28 03:25:52;;;;;;;4.32;1.08;;;4.00;99.90;;;;;;4970994;28;20042;-71
2023/02/28 03:28:18;;;;;;;;;;;4.00;99.90;;;;;;4987464;28;20034;-71
2023/02/28 03:30:53;;;;;;;3.33;1.27;;;4.00;99.90;;;;;;4989853;28;19921;-71
2023/02/28 03:33:35;;;;;;;3.50;1.45;;;4.10;99.90;;;;;;4993033;28;20461;-71
2023/02/28 03:36:13;;;;;;;2.17;0.77;;;4.00;99.90;;;;;;4987107;28;20456;-71
2023/02/28 03:38:43;;;;;;;6.10;1.00;;;4.00;99.90;;;;;;4987798;28;20062;-72
2023/02/28 03:41:22;;;;;;;4.33;0.60;;;4.00;99.90;;;;;;4984278;28;20026;-71
2023/02/28 03:44:00;;;;;;;4.47;1.13;;;4.00;99.90;;;;;;4993097;28;20240;-71
2023/02/28 03:46:31;;;;;;;4.25;1.25;;;4.00;99.90;;;;;;4983157;28;20038;-71
2023/02/28 03:49:14;;;;;;;3.45;1.10;;;4.00;99.90;;;;;;4985792;28;20410;-72
2023/02/28 03:51:42;;;;;;;4.35;1.13;;;4.00;99.90;;;;;;4987284;28;20084;-72
2023/02/28 03:54:13;;;;;;;2.42;1.30;;;4.00;99.90;;;;;;4989730;28;20113;-71
2023/02/28 03:56:45;;;;;;;4.80;0.90;;;4.00;99.90;;;;;;4993367;28;20038;-71
2023/02/28 03:59:20;;;;;;;6.85;2.20;;;4.00;99.90;;;;;;4986142;28;20125;-71
2023/02/28 04:01:48;;;;;;;1.80;0.80;;;4.00;99.90;;;;;;4986575;28;20415;-71
2023/02/28 04:04:15;;;;;;;7.03;1.58;;;4.00;99.90;;;;;;4993316;28;20046;-71
2023/02/28 04:06:41;;;;;;;3.85;1.15;;;4.00;99.90;;;;;;4987007;28;20468;-71
2023/02/28 04:09:09;;;;;;;3.05;1.30;;;4.00;99.90;;;;;;4986196;28;20031;-72
2023/02/28 04:11:38;;;;;;;4.45;1.20;;;4.00;99.90;;;;;;4990316;28;20379;-71
2023/02/28 04:14:05;;;;;;;2.28;1.10;;;4.00;99.90;;;;;;4987737;28;21872;-72
2023/02/28 04:16:35;;;;;;;7.93;1.67;;;4.00;99.90;;;;;;4987122;28;20034;-72
2023/02/28 04:19:04;;;;;;;3.28;1.30;;;4.10;99.90;;;;;;4989026;28;20862;-72
2023/02/28 04:21:31;;;;;;;3.20;1.20;;;4.10;99.90;;;;;;4986794;28;20031;-71
2023/02/28 04:24:00;;;;;;;5.93;1.60;;;4.00;99.90;;;;;;4987825;28;20510;-73
2023/02/28 04:26:35;;;;;;;2.03;1.10;;;4.00;99.90;;;;;;4989256;28;20564;-72
2023/02/28 04:29:03;;;;;;;6.63;1.08;;;4.00;99.90;;;;;;4984421;28;20034;-72
2023/02/28 04:31:28;;;;;;;7.10;1.45;;;4.00;99.90;;;;;;4986496;28;20039;-72
2023/02/28 04:33:54;;;;;;;3.45;1.50;;;4.00;99.90;;;;;;4986414;28;20112;-72
2023/02/28 04:36:20;;;;;;;5.45;1.65;;;4.00;99.90;;;;;;4986370;28;20049;-72
2023/02/28 04:38:45;;;;;;;3.67;1.25;;;4.00;99.90;;;;;;4987975;28;20044;-72
2023/02/28 04:41:12;;;;;;;3.47;1.20;;;4.00;99.90;;;;;;4986963;28;20165;-72
2023/02/28 04:43:38;;;;;;;5.13;1.42;;;4.00;99.90;;;;;;4980948;28;20034;-72
2023/02/28 04:46:05;;;;;;;5.20;1.50;;;4.00;99.90;;;;;;4989894;28;20682;-72
2023/02/28 04:48:34;;;;;;;4.05;1.25;;;4.10;99.90;;;;;;4990506;28;20043;-72
2023/02/28 04:51:05;;;;;;;2.42;1.10;;;4.10;99.90;;;;;;4989504;28;20034;-72
2023/02/28 04:53:32;;;;;;;3.17;1.63;;;4.00;99.90;;;;;;4990622;28;20037;-72
2023/02/28 04:55:58;;;;;;;6.00;2.15;;;4.00;99.90;;;;;;4989370;28;20105;-72
2023/02/28 04:58:24;;;;;;;6.15;1.50;;;4.10;99.90;;;;;;4990637;28;20399;-72
2023/02/28 05:00:53;;;;;;;3.45;1.70;;;4.00;99.90;;;;;;4991256;28;20089;-72
2023/02/28 05:03:20;;;;;;;5.50;1.42;;;4.00;99.90;;;;;;4984242;28;20038;-72
2023/02/28 05:05:46;;;;;;;3.50;1.60;;;3.90;99.90;;;;;;4990859;28;20503;-72
2023/02/28 05:08:12;;;;;;;6.53;1.33;;;3.90;99.90;;;;;;4989085;28;20125;-72
2023/02/28 05:10:37;;;;;;;3.47;1.63;;;3.80;99.90;;;;;;4989693;28;20742;-72
2023/02/28 05:13:03;;;;;;;2.05;0.93;;;3.80;99.90;;;;;;4972036;28;20407;-72
2023/02/28 05:15:28;;;;;;;1.83;0.82;;;3.70;99.90;;;;;;4990464;28;20113;-72
2023/02/28 05:17:54;;;;;;;2.45;0.90;;;3.70;99.90;;;;;;4995551;28;20515;-73
2023/02/28 05:20:20;;;;;;;4.32;0.90;;;3.60;99.90;;;;;;4989925;28;20035;-72
2023/02/28 05:22:47;;;;;;;2.40;1.35;;;3.60;99.90;;;;;;4990039;28;20030;-72
2023/02/28 05:25:19;;;;;;;2.75;1.00;;;3.60;99.90;;;;;;4984756;28;20057;-72
2023/02/28 05:27:44;;;;;;;3.92;0.98;;;3.50;99.90;;;;;;4992754;28;20613;-71
2023/02/28 05:30:11;;;;;;;1.17;0.60;;;3.50;99.90;;;;;;4971607;28;20061;-72
2023/02/28 05:32:37;;;;;;;3.67;0.90;;;3.50;99.90;;;;;;4984368;28;20126;-72
2023/02/28 05:35:04;;;;;;;0.93;0.60;;;3.40;99.90;;;;;;4960563;28;20034;-72
2023/02/28 05:37:29;;;;;;;4.88;0.80;;;3.40;99.90;;;;;;4970934;28;20050;-72
2023/02/28 05:39:55;;;;;;;2.70;1.00;;;3.40;99.90;;;;;;4969635;28;20035;-74
2023/02/28 05:42:20;;;;;;;1.60;0.50;;;3.40;99.90;;;;;;4970861;28;20047;-72
2023/02/28 05:44:46;;;;;;;4.57;0.70;;;3.40;99.90;;;;;;4969038;28;20483;-72
2023/02/28 05:47:15;;;;;;;3.75;1.02;;;3.40;99.90;;;;;;4969371;28;20696;-72
2023/02/28 05:49:43;;;;;;;1.45;0.70;;;3.30;99.90;;;;;;4970229;28;20043;-71
2023/02/28 05:52:09;;;;;;;3.28;1.23;;;3.30;99.90;;;;;;4968744;28;20058;-71
2023/02/28 05:54:37;;;;;;;9.18;1.50;;;3.20;99.90;;;;;;4974114;28;20051;-72
2023/02/28 05:57:09;;;;;;;2.08;0.93;;;3.20;99.90;;;;;;4969297;28;20034;-71
2023/02/28 05:59:34;;;;;;;3.28;0.82;;;3.20;99.90;;;;;;4973781;28;20129;-72
2023/02/28 06:02:00;;;;;;;3.22;0.93;;;3.20;99.90;;;;;;4972923;28;20126;-72
2023/02/28 06:04:26;;;;;;;4.40;1.30;;;3.20;99.90;;;;;;4969913;28;20042;-72
2023/02/28 06:06:52;;;;;;;2.45;0.80;;;3.20;99.90;;;;;;4969831;28;20039;-72
2023/02/28 06:09:18;;;;;;;1.25;0.55;;;3.10;99.90;;;;;;4976194;28;20027;-72
2023/02/28 06:11:50;;;;;;;1.67;0.93;;;3.10;99.90;;;;;;4968249;28;20035;-71
2023/02/28 06:14:19;;;;;;;2.42;0.95;;;3.00;99.90;;;;;;4990599;28;20058;-72
2023/02/28 06:16:45;;;;;;;1.95;1.10;;;2.90;99.90;;;;;;4966192;28;20090;-72
2023/02/28 06:19:10;;;;;;;2.35;1.23;;;2.80;99.90;;;;;;4968560;28;20031;-72
2023/02/28 06:21:36;;;;;;;4.97;1.17;;;2.80;99.90;;;;;;4969572;28;20448;-72
2023/02/28 06:24:03;;;;;;;2.05;1.25;;;2.70;99.90;;;;;;4972213;28;20030;-72
2023/02/28 06:26:29;;;;;;;2.58;0.93;;;2.60;99.90;;;;;;4973150;28;20034;-72
2023/02/28 06:28:55;;;;;;;3.35;1.63;;;2.60;99.90;;;;;;4968763;28;20109;-74
2023/02/28 06:31:21;;;;;;;4.28;1.17;;;2.60;99.90;;;;;;4969761;28;20138;-72
2023/02/28 06:33:48;;;;;;;3.13;1.17;;;2.50;99.90;;;;;;4969510;28;20516;-72
2023/02/28 06:36:15;;;;;;;3.10;1.00;;;2.40;99.90;;;;;;4974986;28;20129;-72
2023/02/28 06:38:41;;;;;;;3.22;1.08;;;2.40;99.90;;;;;;4969677;28;20117;-71
2023/02/28 06:41:07;;;;;;;2.30;1.10;;;2.30;99.90;;;;;;4970187;28;20081;-71
2023/02/28 06:43:38;;;;;;;1.85;1.20;;;2.30;99.90;;;;;;4973214;28;20042;-73
2023/02/28 06:46:06;;;;;;;3.42;1.30;;;2.20;99.90;;;;;;4968338;28;20035;-71
2023/02/28 06:48:31;;;;;;;3.15;1.85;;;2.10;99.90;;;;;;4971996;28;20403;-72
2023/02/28 06:51:15;;;;;;;2.80;1.35;;;2.10;99.90;;;;;;4971380;28;20039;-72
2023/02/28 06:53:41;;;;;;;2.28;1.20;;;2.10;99.90;;;;;;4967738;28;20647;-72
2023/02/28 06:56:09;;;;;;;6.65;1.30;;;2.00;99.90;;;;;;4972832;28;20038;-71
2023/02/28 06:58:37;;;;;;;3.17;1.63;;;2.00;99.90;;;;;;4967819;28;20031;-72
2023/02/28 07:01:03;;;;;;;4.47;2.10;;;2.00;99.90;;;;;;4971390;28;20035;-72
2023/02/28 07:03:29;;;;;;;3.90;1.60;;;2.00;99.90;;;;;;4971820;28;20038;-71
2023/02/28 07:05:56;;;;;;;3.83;1.55;;;2.00;99.90;;;;;;4967857;28;20043;-75
2023/02/28 07:08:22;;;;;;;3.28;1.65;;;2.00;99.90;;;;;;4971648;28;20113;-72
2023/02/28 07:10:53;;;;;;;2.03;1.25;;;2.00;99.90;;;;;;4971578;28;20771;-72
2023/02/28 07:13:18;;;;;;;4.03;1.73;;;2.00;99.90;;;;;;4973274;28;20026;-72
2023/02/28 07:15:44;;;;;;;3.35;1.50;;;2.00;99.90;;;;;;4970032;28;20047;-72
2023/02/28 07:18:09;;;;;;;4.15;1.73;;;2.10;99.90;;;;;;4969488;28;20097;-72
2023/02/28 07:20:35;;;;;;;3.42;1.67;;;2.20;99.90;;;;;;4968164;28;20038;-72
2023/02/28 07:23:01;;;;;;;3.72;1.40;;;2.20;99.90;;;;;;4966637;28;20035;-72
2023/02/28 07:25:28;;;;;;;7.40;2.45;;;2.20;99.90;;;;;;4967674;28;20034;-72
2023/02/28 07:27:55;;;;;;;5.00;2.28;;;2.20;99.90;;;;;;4968731;28;20041;-72
2023/02/28 07:30:20;;;;;;;5.63;2.55;;;2.30;99.90;;;;;;4967156;28;20472;-71
2023/02/28 07:32:46;;;;;;;3.47;1.70;;;2.30;99.90;;;;;;4966559;28;20038;-72
2023/02/28 07:35:12;;;;;;;3.08;1.73;;;2.30;99.90;;;;;;4967030;28;20042;-72
2023/02/28 07:37:37;;;;;;;2.97;1.42;;;2.40;99.90;;;;;;4967905;28;20031;-72
2023/02/28 07:40:08;;;;;;;9.27;1.50;;;2.50;99.90;;;;;;4999061;28;20037;-72
2023/02/28 07:42:34;;;;;;;5.80;1.85;;;2.50;99.90;;;;;;4970312;28;20026;-72
2023/02/28 07:44:59;;;;;;;4.93;2.15;;;2.50;99.90;;;;;;4969629;28;20086;-73
2023/02/28 07:47:25;;;;;;;3.35;1.80;;;2.60;99.90;;;;;;4972480;28;20034;-72
2023/02/28 07:49:50;;;;;;;6.55;1.48;;;2.60;99.90;;;;;;4970157;28;20122;-72
2023/02/28 07:52:16;;;;;;;3.28;1.85;;;2.70;99.90;;;;;;4960965;28;20031;-72
2023/02/28 07:54:44;;;;;;;3.72;1.67;;;2.70;99.90;;;;;;4968183;28;20055;-72
2023/02/28 07:57:10;;;;;;;3.83;1.77;;;2.80;99.90;;;;;;4964547;28;20479;-72
2023/02/28 07:59:35;;;;;;;3.97;2.08;;;2.80;99.90;;;;;;4969125;28;20058;-72
2023/02/28 08:02:01;;;;;;;3.50;2.05;;;2.80;99.90;;;;;;4968348;28;20483;-75
2023/02/28 08:04:27;;;;;;;2.97;1.65;;;2.80;99.90;;;;;;4969162;28;20031;-72
2023/02/28 08:06:52;;;;;;;5.72;1.85;;;2.80;99.90;;;;;;4963374;28;20208;-72
2023/02/28 08:09:19;;;;;;;3.20;1.70;;;2.80;99.90;;;;;;4966265;28;20034;-72
2023/02/28 08:11:44;;;;;;;7.57;2.20;;;2.90;99.90;;;;;;4969922;28;20045;-72
2023/02/28 08:14:10;;;;;;;5.57;1.65;;;2.90;99.90;;;;;;4998196;28;20031;-72
2023/02/28 08:16:36;;;;;;;6.20;1.90;;;2.90;99.90;;;;;;4970238;28;20169;-72
2023/02/28 08:19:01;;;;;;;8.25;2.45;;;2.90;99.90;;;;;;4963797;28;20035;-72
2023/02/28 08:21:27;;;;;;;7.13;1.92;;;3.00;99.90;;;;;;4966183;28;20506;-72
2023/02/28 08:23:52;;;;;;;4.00;2.22;;;3.10;99.90;;;;;;4964942;28;20062;-72
2023/02/28 08:26:19;;;;;;;3.15;1.50;;;3.10;99.90;;;;;;4968597;28;20492;-72
2023/02/28 08:28:45;;;;;;;4.22;1.55;;;3.10;99.90;;;;;;4965932;28;20034;-73
2023/02/28 08:31:13;;;;;;;6.82;1.65;;;3.10;99.90;;;;;;4967000;28;20039;-72
2023/02/28 08:33:39;;;;;;;6.18;2.25;;;3.20;99.90;;;;;;4995110;28;20035;-72
2023/02/28 08:36:05;;;;;;;6.53;1.88;;;3.30;99.90;;;;;;4966285;28;20068;-73
2023/02/28 08:38:31;;;;;;;6.22;1.55;;;3.20;99.90;;;;;;4965529;28;20134;-73
2023/02/28 08:40:59;;;;;;;7.10;2.00;;;3.30;99.90;;;;;;4980345;28;20109;-73
2023/02/28 08:43:24;;;;;;;3.22;1.75;;;3.40;99.90;;;;;;4964461;28;20053;-72
2023/02/28 08:45:56;;;;;;;7.88;1.83;;;3.60;99.90;;;;;;4981159;28;20050;-72
2023/02/28 08:48:23;;;;;;;8.70;1.92;;;3.60;99.90;;;;;;4966253;28;20030;-73
2023/02/28 08:50:59;;;;;;;3.90;1.50;;;3.60;99.90;;;;;;4967353;28;20117;-72
2023/02/28 08:53:24;;;;;;;8.52;1.40;;;3.70;99.90;;;;;;4965858;28;20041;-72
2023/02/28 08:56:07;;;;;;;4.53;1.63;;;3.80;99.90;;;;;;4965225;28;20043;-73
2023/02/28 08:58:34;;;;;;;7.22;2.53;;;3.70;99.90;;;;;;4964748;28;20103;-73
2023/02/28 09:01:00;;;;;;;1.88;0.90;;;3.70;99.90;;;;;;4963494;28;20038;-73
2023/02/28 09:03:26;;;;;;;2.97;1.00;;;3.70;99.90;;;;;;4963836;28;20045;-73
2023/02/28 09:06:00;;;;;;;2.15;1.00;;;3.70;99.90;;;;;;4966508;28;20643;-73
2023/02/28 09:08:28;;;;;;;1.77;0.85;;;3.80;99.90;;;;;;4966169;28;20045;-72
2023/02/28 09:10:56;;;;;;;3.60;1.00;;;3.80;99.90;;;;;;4962396;28;20121;-73
2023/02/28 09:13:22;;;;;;;1.90;0.85;;;3.80;99.90;;;;;;4966251;28;20461;-72
2023/02/28 09:15:48;;;;;;;2.80;1.30;;;3.80;99.90;;;;;;4964917;28;20056;-73
2023/02/28 09:18:14;;;;;;;4.63;0.95;;;3.80;99.90;;;;;;4965567;28;20046;-73
2023/02/28 09:20:41;;;;;;;3.33;1.08;;;3.90;99.90;;;;;;4963542;28;20038;-72
2023/02/28 09:23:09;;;;;;;2.20;0.80;;;3.90;99.90;;;;;;4964567;28;20588;-73
2023/02/28 09:25:34;;;;;;;2.33;0.90;;;3.90;99.90;;;;;;4963644;28;20040;-73
2023/02/28 09:28:00;;;;;;;1.35;0.70;;;4.00;99.90;;;;;;4964091;28;20474;-74
2023/02/28 09:30:26;;;;;;;0.90;0.70;;;4.00;99.90;;;;;;4970304;28;20050;-72
2023/02/28 09:32:53;;;;;;;2.55;0.88;;;4.00;99.90;;;;;;4971148;28;20491;-73
2023/02/28 09:35:20;;;;;;;3.92;1.08;;;4.00;99.90;;;;;;4970412;28;20365;-72
2023/02/28 09:37:47;;;;;;;2.88;0.63;;;4.20;99.90;;;;;;4971782;28;20566;-72
2023/02/28 09:40:14;;;;;;;6.63;1.08;;;4.20;99.90;;;;;;4970372;28;20503;-72
2023/02/28 09:42:40;;;;;;;0.93;0.50;;;4.20;99.90;;;;;;4971428;28;20034;-72
2023/02/28 09:45:32;;;;;;;2.97;0.65;;;4.10;99.90;;;;;;4969495;28;20539;-73
2023/02/28 09:48:12;;;;;;;1.10;0.68;;;4.10;99.90;;;;;;4967177;28;20051;-72
2023/02/28 09:50:48;;;;;;;1.67;0.77;;;4.20;99.90;;;;;;4970977;28;20034;-72
2023/02/28 09:53:27;;;;;;;1.85;1.13;;;4.20;99.90;;;;;;4970081;28;20046;-73
2023/02/28 09:56:27;;;;;;;2.85;0.80;;;4.30;99.90;;;;;;4971092;28;20046;-72
2023/02/28 09:59:10;;;;;;;1.50;0.70;;;4.40;99.90;;;;;;4969912;28;20109;-73
2023/02/28 10:01:59;;;;;;;1.45;0.35;;;4.50;99.90;;;;;;4984757;28;20090;-72
2023/02/28 10:05:05;;;;;;;2.45;0.47;;;4.60;99.90;;;;;;4972925;28;20053;-72
2023/02/28 10:07:54;;;;;;;1.73;0.68;;;4.80;99.90;;;;;;4981150;28;20108;-72
2023/02/28 10:10:29;;;;;;;2.05;0.70;;;4.90;99.90;;;;;;4985796;28;20038;-71
2023/02/28 10:12:59;;;;;;;3.30;0.50;;;5.10;99.90;;;;;;4988550;28;20395;-75
2023/02/28 10:15:29;;;;;;;3.80;0.90;;;5.30;99.90;;;;;;4988860;28;20119;-72
2023/02/28 10:18:00;;;;;;;2.20;0.50;;;5.40;99.90;;;;;;4987814;28;20030;-74
2023/02/28 10:20:29;;;;;;;1.42;0.45;;;5.50;99.90;;;;;;4995956;28;20046;-72
2023/02/28 10:23:13;;;;;;;0.93;0.40;;;5.50;99.90;;;;;;4975982;28;20038;-73
2023/02/28 10:25:40;;;;;;;5.80;0.68;;;5.60;99.90;;;;;;4995730;28;20030;-72
2023/02/28 10:28:12;;;;;;;1.02;0.40;;;5.60;99.60;;;;;;4991172;28;20058;-73
2023/02/28 10:30:44;;;;;;;1.23;0.50;;;5.60;98.30;;;;;;4997282;28;20026;-72
2023/02/28 10:33:39;;;;;;;1.77;0.50;;;5.70;96.30;;;;;;4973510;28;20451;-72
2023/02/28 10:36:10;;;;;;;0.50;0.30;;;5.70;94.80;;;;;;4979729;28;20049;-72
2023/02/28 10:38:38;;;;;;;1.25;0.50;;;5.70;94.80;;;;;;4996278;28;20038;-73
2023/02/28 10:41:10;;;;;;;1.77;0.70;;;5.70;96.80;;;;;;4998055;28;20148;-72
2023/02/28 10:43:37;;;;;;;1.15;0.50;;;5.80;96.40;;;;;;4993295;28;20038;-72
2023/02/28 10:46:08;;;;;;;1.42;0.50;;;5.80;96.30;;;;;;4995572;28;20027;-73
2023/02/28 10:48:56;;;;;;;1.15;0.77;;;5.70;96.60;;;;;;4992304;28;20038;-72
2023/02/28 10:51:23;;;;;;;4.22;0.77;;;5.80;96.80;;;;;;4997300;28;20038;-72
2023/02/28 10:53:49;;;;;;;1.67;0.82;;;6.00;94.60;;;;;;4993036;28;20060;-72
2023/02/28 10:56:22;;;;;;;0.80;0.52;;;6.00;93.90;;;;;;4995735;28;20096;-71
2023/02/28 10:58:56;;;;;;;1.58;0.40;;;6.00;94.40;;;;;;4997234;28;20048;-72
2023/02/28 11:01:41;;;;;;;4.15;0.50;;;6.10;95.20;;;;;;4996540;28;20089;-72
2023/02/28 11:04:32;;;;;;;1.70;0.52;;;6.20;94.20;;;;;;4991197;28;20037;-72
2023/02/28 11:06:57;;;;;;;;;;;6.30;94.60;;;;;;5000187;28;20073;-73
2023/02/28 11:09:33;;;;;;;1.00;0.50;;;6.40;94.80;;;;;;4996520;28;19941;-73
2023/02/28 11:11:59;;;;;;;0.93;0.60;;;6.40;93.60;;;;;;4993758;28;20038;-73
2023/02/28 11:14:29;;;;;;;1.30;0.47;;;6.50;93.60;;;;;;4995123;28;20034;-73
2023/02/28 11:17:01;;;;;;;1.05;0.60;;;6.50;92.90;;;;;;4994674;28;20125;-73
2023/02/28 11:19:47;;;;;;;0.80;0.40;;;6.50;93.80;;;;;;4977965;28;20052;-73
2023/02/28 11:22:19;;;;;;;1.63;0.50;;;6.60;93.10;;;;;;4995676;28;20129;-72
2023/02/28 11:24:50;;;;;;;2.13;0.38;;;6.60;92.70;;;;;;4995676;28;20029;-72
2023/02/28 11:27:41;;;;;;;1.65;0.60;;;6.50;93.60;;;;;;4990482;28;20046;-72
2023/02/28 11:30:24;;;;;;;1.25;0.20;;;6.40;92.60;;;;;;4978326;28;20108;-73
2023/02/28 11:32:50;;;;;;;2.17;0.57;;;6.30;92.00;;;;;;4987430;28;20081;-73
2023/02/28 11:35:26;;;;;;;1.48;1.05;;;6.10;93.20;;;;;;4988943;28;20039;-72
2023/02/28 11:37:52;;;;;;;1.08;0.40;;;6.20;93.20;;;;;;4996107;28;20394;-72
2023/02/28 11:40:38;;;;;;;2.65;0.52;;;6.10;91.80;;;;;;4991223;28;20034;-72
2023/02/28 11:43:42;;;;;;;2.92;0.40;;;6.10;92.30;;;;;;4986265;28;20022;-72
2023/02/28 11:46:27;;;;;;;2.35;0.75;;;6.10;92.90;;;;;;4987046;28;20018;-73
2023/02/28 11:49:31;;;;;;;1.45;0.32;;;6.10;92.30;;;;;;4989808;28;20038;-73
2023/02/28 11:51:59;;;;;;;1.10;0.50;;;6.10;92.70;;;;;;4985529;28;20042;-73
2023/02/28 11:55:11;;;;;;;1.73;0.40;;;6.20;91.80;;;;;;4976807;28;20081;-71
2023/02/28 11:57:45;;;;;;;1.08;0.68;;;6.10;91.70;;;;;;4951536;28;20038;-72
2023/02/28 12:00:42;;;;;;;1.98;0.77;;;6.10;92.70;;;;;;4973416;28;20129;-73
2023/02/28 12:03:07;;;;;;;0.93;0.30;;;6.10;91.80;;;;;;4986489;28;20114;-72
2023/02/28 12:06:00;;;;;;;2.20;0.30;;;6.00;91.70;;;;;;4974637;28;20037;-73
2023/02/28 12:08:44;;;;;;;0.30;0.30;;;6.10;92.30;;;;;;4991632;28;20034;-73
2023/02/28 12:11:40;;;;;;;0.65;0.40;;;6.10;92.10;;;;;;4988649;28;20070;-73
2023/02/28 12:14:30;;;;;;;1.10;0.47;;;6.10;91.90;;;;;;5003442;28;20026;-72
2023/02/28 12:17:13;;;;;;;2.72;0.45;;;6.20;91.10;;;;;;4985202;28;20034;-75
2023/02/28 12:20:13;;;;;;;1.23;0.70;;;6.20;91.60;;;;;;4989327;28;20494;-72
2023/02/28 12:22:57;;;;;;;3.22;0.50;;;6.30;90.90;;;;;;4988599;28;20034;-73
2023/02/28 12:25:32;;;;;;;1.95;0.40;;;6.20;91.10;;;;;;4991815;28;20042;-73
2023/02/28 12:27:58;;;;;;;1.20;0.60;;;6.20;90.90;;;;;;5001649;28;20034;-72
2023/02/28 12:31:02;;;;;;;1.95;0.47;;;6.20;90.90;;;;;;4969417;28;20462;-72
2023/02/28 12:33:34;;;;;;;1.65;0.40;;;6.20;91.20;;;;;;4988314;28;20034;-72
2023/02/28 12:36:09;;;;;;;1.70;0.50;;;6.20;91.90;;;;;;4982552;28;20038;-72
2023/02/28 12:38:44;;;;;;;1.33;0.40;;;6.30;91.00;;;;;;4987558;28;20038;-72
2023/02/28 12:41:16;;;;;;;4.43;0.50;;;6.40;91.10;;;;;;4992105;28;20038;-73
2023/02/28 12:43:48;;;;;;;0.47;0.38;;;6.30;90.70;;;;;;4989216;28;20045;-72
2023/02/28 12:46:18;;;;;;;1.10;0.50;;;6.40;90.70;;;;;;4986654;28;20063;-72
2023/02/28 12:48:48;;;;;;;1.10;0.60;;;6.30;90.70;;;;;;4974119;28;20481;-72
2023/02/28 12:51:16;;;;;;;0.60;0.40;;;6.40;90.30;;;;;;4990456;28;20642;-72
2023/02/28 12:54:00;;;;;;;1.30;0.45;;;6.40;90.00;;;;;;4989494;28;20402;-72
2023/02/28 12:56:47;;;;;;;3.15;0.52;;;6.40;90.30;;;;;;4986023;28;20058;-72
2023/02/28 13:00:02;;;;;;;2.60;0.60;;;6.40;90.70;;;;;;4968250;28;20590;-72
2023/02/28 13:02:33;;;;;;;1.25;0.40;;;6.50;90.60;;;;;;4926638;28;20055;-72
2023/02/28 13:05:14;;;;;;;1.77;0.65;;;6.60;90.00;;;;;;4926173;28;20106;-72
2023/02/28 13:08:02;;;;;;;1.25;0.60;;;6.70;90.30;;;;;;4943313;28;20042;-72
2023/02/28 13:10:54;;;;;;;1.13;0.30;;;6.70;87.40;;;;;;4986450;28;20165;-73
2023/02/28 13:13:29;;;;;;;2.33;1.08;;;6.70;88.50;;;;;;4971912;28;20491;-72
2023/02/28 13:16:01;;;;;;;0.93;0.40;;;6.60;89.90;;;;;;4971554;28;20053;-72
2023/02/28 13:18:44;;;;;;;1.27;0.30;;;6.60;90.00;;;;;;4987224;28;20034;-71
2023/02/28 13:21:23;;;;;;;0.40;0.20;;;6.70;89.70;;;;;;4989417;28;20494;-72